MMMX/MEX METAR and TAF weather

Enter ICAO airport designator
Station Type Date Time Source
MMMX METAR 2020/12/06 01:45 UTC NOAA

MMMX 060145Z 19003KT 9SM SCT080 17/06 A3031 NOSIG RMK 8/030 HZY


Station Type Date Time Source
MMMX Decoded METAR 2020/12/06 01:45 UTC NOAA

Mexico City / Licenci, Mexico (MMMX) 19-26N 099-06W
Dec 05, 2020 - 08:45 PM EST / 2020.12.06 0145 UTC
Wind: from the S (190 degrees) at 3 MPH (3 KT):0
Visibility: 9 mile(s):0
Sky conditions: partly cloudy
Temperature: 62 F (17 C)
Dew Point: 42 F (6 C)
Relative Humidity: 48%
Pressure (altimeter): 30.31 in. Hg (1026 hPa)
ob: MMMX 060145Z 19003KT 9SM SCT080 17/06 A3031 NOSIG RMK 8/030 HZY
cycle: 2

Station Type Date Time Source
MMMX TAF 2020/12/05 18:50 UTC NOAA

TAF MMMX 051643Z 0518/0624 23010KT P6SM SCT025 BKN230 TX23/0522Z TN11/0613Z
BECMG 0520/0521 BKN020 BKN230
FM060200 27005KT P6SM SCT020
BECMG 0619/0620 26010KT

Example: see airport list